createdAt,value
2022-10-14T00:01:13.187Z,6.43
2022-10-14T00:03:40.637Z,6.00
2022-10-14T00:06:10.485Z,5.90
2022-10-14T00:08:37.869Z,5.57
2022-10-14T00:11:10.757Z,5.75
2022-10-14T00:13:38.363Z,6.13
2022-10-14T00:16:06.364Z,5.80
2022-10-14T00:18:33.672Z,5.90
2022-10-14T00:21:02.050Z,5.40
2022-10-14T00:23:30.765Z,5.43
2022-10-14T00:25:58.003Z,5.35
2022-10-14T00:28:30.488Z,5.68
2022-10-14T00:30:59.819Z,6.18
2022-10-14T00:33:28.040Z,5.57
2022-10-14T00:35:58.982Z,5.22
2022-10-14T00:38:31.887Z,5.30
2022-10-14T00:40:59.204Z,4.90
2022-10-14T00:43:27.886Z,4.63
2022-10-14T00:45:55.159Z,4.72
2022-10-14T00:48:24.984Z,4.68
2022-10-14T00:50:56.609Z,4.55
2022-10-14T00:53:23.888Z,3.83
2022-10-14T00:55:53.172Z,4.63
2022-10-14T00:58:23.862Z,4.43
2022-10-14T01:00:51.306Z,4.60
2022-10-14T01:03:21.270Z,4.47
2022-10-14T01:05:55.497Z,4.45
2022-10-14T01:08:31.640Z,4.32
2022-10-14T01:11:14.997Z,4.18
2022-10-14T01:13:50.895Z,4.50
2022-10-14T01:16:21.792Z,3.85
2022-10-14T01:19:33.393Z,4.20
2022-10-14T01:22:32.573Z,3.85
2022-10-14T01:25:20.471Z,4.47
2022-10-14T01:28:16.645Z,4.00
2022-10-14T01:30:47.070Z,4.15
2022-10-14T01:33:24.793Z,4.90
2022-10-14T01:36:12.309Z,4.88
2022-10-14T01:38:45.412Z,4.10
2022-10-14T01:41:29.109Z,4.45
2022-10-14T01:44:00.548Z,4.45
2022-10-14T01:46:29.680Z,4.38
2022-10-14T01:49:01.878Z,4.35
2022-10-14T01:51:33.322Z,4.70
2022-10-14T01:54:04.717Z,4.30
2022-10-14T01:56:35.011Z,4.40
2022-10-14T01:59:06.936Z,4.32
2022-10-14T02:01:35.004Z,4.28
2022-10-14T02:04:02.483Z,4.32
2022-10-14T02:06:32.601Z,3.72
2022-10-14T02:09:12.830Z,3.42
2022-10-14T02:11:57.332Z,3.85
2022-10-14T02:14:27.593Z,3.90
2022-10-14T02:16:55.928Z,4.55
2022-10-14T02:19:28.794Z,4.57
2022-10-14T02:22:02.072Z,4.13
2022-10-14T02:24:38.377Z,4.22
2022-10-14T02:27:09.597Z,4.22
2022-10-14T02:29:39.081Z,4.00
2022-10-14T02:32:07.331Z,4.10
2022-10-14T02:34:35.448Z,4.22
2022-10-14T02:37:03.498Z,4.00
2022-10-14T02:39:36.756Z,3.70
2022-10-14T02:42:05.834Z,4.10
2022-10-14T02:44:34.727Z,4.38
2022-10-14T02:47:02.131Z,4.30
2022-10-14T02:49:30.551Z,4.75
2022-10-14T02:51:57.812Z,4.18
2022-10-14T02:54:25.067Z,4.80
2022-10-14T02:56:52.320Z,5.10
2022-10-14T02:59:19.533Z,4.63
2022-10-14T03:01:47.101Z,5.03
2022-10-14T03:04:16.305Z,4.32
2022-10-14T03:06:43.575Z,4.85
2022-10-14T03:09:10.797Z,4.72
2022-10-14T03:11:40.974Z,5.10
2022-10-14T03:14:13.436Z,4.20
2022-10-14T03:16:42.342Z,4.78
2022-10-14T03:21:44.423Z,3.90
2022-10-14T03:24:18.343Z,4.78
2022-10-14T03:26:47.691Z,4.22
2022-10-14T03:29:20.068Z,4.15
2022-10-14T03:31:55.362Z,3.67
2022-10-14T03:34:41.125Z,3.50
2022-10-14T03:37:15.090Z,3.30
2022-10-14T03:39:49.051Z,2.97
2022-10-14T03:42:17.483Z,3.20
2022-10-14T03:44:47.868Z,2.78
2022-10-14T03:47:19.072Z,2.55
2022-10-14T03:49:46.576Z,2.63
2022-10-14T03:52:34.040Z,2.47
2022-10-14T03:55:18.029Z,2.80
2022-10-14T03:57:47.566Z,2.53
2022-10-14T04:00:16.656Z,2.15
2022-10-14T04:02:50.001Z,1.92
2022-10-14T04:05:33.671Z,1.67
2022-10-14T04:08:04.158Z,1.80
2022-10-14T04:10:31.796Z,1.77
2022-10-14T04:13:01.818Z,1.85
2022-10-14T04:15:36.553Z,1.80
2022-10-14T04:18:24.005Z,1.92
2022-10-14T04:20:53.768Z,1.80
2022-10-14T04:23:23.322Z,1.80
2022-10-14T04:25:54.948Z,1.90
2022-10-14T04:28:23.643Z,1.67
2022-10-14T04:31:00.545Z,1.50
2022-10-14T04:33:35.061Z,1.40
2022-10-14T04:36:10.531Z,1.40
2022-10-14T04:38:40.771Z,1.52
2022-10-14T04:41:10.377Z,1.40
2022-10-14T04:43:41.821Z,1.50
2022-10-14T04:46:20.691Z,1.40
2022-10-14T04:48:49.172Z,1.60
2022-10-14T04:51:17.789Z,1.20
2022-10-14T04:54:02.986Z,1.60
2022-10-14T04:56:56.949Z,2.00
2022-10-14T04:59:24.223Z,1.35
2022-10-14T05:02:01.106Z,1.73
2022-10-14T05:04:37.701Z,1.70
2022-10-14T05:07:04.996Z,1.70
2022-10-14T05:09:33.396Z,1.65
2022-10-14T05:12:01.220Z,1.60
2022-10-14T05:14:38.619Z,1.65
2022-10-14T05:17:22.687Z,1.70
2022-10-14T05:19:49.935Z,1.50
2022-10-14T05:22:19.379Z,1.50
2022-10-14T05:24:46.953Z,1.70
2022-10-14T05:27:14.874Z,2.00
2022-10-14T05:29:43.215Z,1.77
2022-10-14T05:32:10.711Z,1.80
2022-10-14T05:34:45.066Z,1.60
2022-10-14T05:37:25.103Z,2.03
2022-10-14T05:39:56.213Z,1.55
2022-10-14T05:42:26.536Z,1.70
2022-10-14T05:44:56.800Z,1.92
2022-10-14T05:47:25.118Z,2.05
2022-10-14T05:49:57.695Z,2.40
2022-10-14T05:52:25.288Z,2.40
2022-10-14T05:54:53.835Z,2.88
2022-10-14T05:57:24.885Z,2.33
2022-10-14T05:59:52.079Z,2.95
2022-10-14T06:02:19.664Z,2.97
2022-10-14T06:04:47.619Z,3.10
2022-10-14T06:07:15.096Z,3.08
2022-10-14T06:09:42.559Z,3.20
2022-10-14T06:12:10.264Z,2.80
2022-10-14T06:14:38.834Z,3.42
2022-10-14T06:17:06.583Z,4.05
2022-10-14T06:19:34.008Z,4.60
2022-10-14T06:22:01.238Z,4.70
2022-10-14T06:24:28.738Z,4.35
2022-10-14T06:26:56.030Z,4.55
2022-10-14T06:29:26.582Z,2.85
2022-10-14T06:31:53.804Z,3.20
2022-10-14T06:34:23.750Z,3.22
2022-10-14T06:36:50.990Z,3.22
2022-10-14T06:39:18.167Z,3.38
2022-10-14T06:41:45.435Z,3.03
2022-10-14T06:44:20.442Z,3.30
2022-10-14T06:46:47.736Z,3.40
2022-10-14T06:49:14.963Z,3.25
2022-10-14T06:51:42.278Z,3.55
2022-10-14T06:54:09.503Z,3.10
2022-10-14T06:56:36.738Z,2.55
2022-10-14T06:59:05.830Z,3.30
2022-10-14T07:01:33.117Z,2.25
2022-10-14T07:04:00.383Z,2.38
2022-10-14T07:06:27.650Z,2.35
2022-10-14T07:08:54.881Z,2.03
2022-10-14T07:11:22.279Z,2.00
2022-10-14T07:13:49.650Z,2.38
2022-10-14T07:16:16.863Z,1.90
2022-10-14T07:18:44.161Z,2.38
2022-10-14T07:21:11.730Z,2.20
2022-10-14T07:23:39.031Z,1.90
2022-10-14T07:26:06.317Z,1.77
2022-10-14T07:28:34.191Z,2.08
2022-10-14T07:31:04.037Z,2.47
2022-10-14T07:33:31.380Z,2.33
2022-10-14T07:36:03.317Z,2.17
2022-10-14T07:38:31.387Z,2.10
2022-10-14T07:41:07.771Z,1.85
2022-10-14T07:43:35.895Z,2.13
2022-10-14T07:46:05.219Z,2.70
2022-10-14T07:48:45.246Z,1.42
2022-10-14T07:51:21.559Z,1.73
2022-10-14T07:53:50.179Z,2.70
2022-10-14T07:56:17.464Z,1.75
2022-10-14T07:58:44.757Z,1.65
2022-10-14T08:01:12.837Z,1.73
2022-10-14T08:03:40.192Z,3.25
2022-10-14T08:06:07.583Z,3.50
2022-10-14T08:08:35.738Z,2.92
2022-10-14T08:11:24.717Z,1.90
2022-10-14T08:13:52.200Z,1.65
2022-10-14T08:16:21.621Z,1.40
2022-10-14T08:18:49.765Z,1.43
2022-10-14T08:21:18.169Z,2.25
2022-10-14T08:23:45.591Z,1.90
2022-10-14T08:26:18.614Z,1.70
2022-10-14T08:28:46.162Z,2.20
2022-10-14T08:31:13.631Z,1.65
2022-10-14T08:33:40.813Z,2.22
2022-10-14T08:36:08.661Z,2.25
2022-10-14T08:38:35.926Z,1.85
2022-10-14T08:41:12.295Z,1.92
2022-10-14T08:43:43.303Z,3.28
2022-10-14T08:46:19.249Z,2.13
2022-10-14T08:48:48.112Z,2.03
2022-10-14T08:51:17.576Z,2.03
2022-10-14T08:53:56.179Z,1.97
2022-10-14T08:56:24.601Z,1.83
2022-10-14T08:58:53.991Z,2.63
2022-10-14T09:01:36.265Z,3.37
2022-10-14T09:04:10.718Z,2.03
2022-10-14T09:06:40.282Z,2.97
2022-10-14T09:09:16.756Z,2.35
2022-10-14T09:11:46.289Z,2.17
2022-10-14T09:14:21.607Z,2.25
2022-10-14T09:16:54.181Z,2.67
2022-10-14T09:19:46.882Z,2.20
2022-10-14T09:22:15.406Z,2.17
2022-10-14T09:24:46.154Z,2.13
2022-10-14T09:27:17.645Z,3.00
2022-10-14T09:29:57.244Z,2.20
2022-10-14T09:32:30.626Z,2.45
2022-10-14T09:34:58.718Z,2.78
2022-10-14T09:37:26.091Z,3.38
2022-10-14T09:39:56.560Z,2.45
2022-10-14T09:45:14.265Z,2.63
2022-10-14T09:47:59.193Z,3.03
2022-10-14T09:50:39.800Z,4.07
2022-10-14T09:53:13.888Z,2.95
2022-10-14T09:55:48.235Z,2.88
2022-10-14T09:58:41.444Z,2.70
2022-10-14T10:01:14.504Z,2.88
2022-10-14T10:03:42.114Z,3.70
2022-10-14T10:06:11.965Z,13.93
2022-10-14T10:09:01.353Z,10.43
2022-10-14T10:11:40.080Z,7.22
2022-10-14T10:14:27.682Z,8.35
2022-10-14T10:17:07.262Z,7.07
2022-10-14T10:19:37.565Z,7.60
2022-10-14T10:25:01.078Z,3.10
2022-10-14T10:27:36.605Z,3.80
2022-10-14T10:30:22.076Z,3.25
2022-10-14T10:32:52.321Z,4.07
2022-10-14T10:38:03.332Z,9.10
2022-10-14T10:40:52.782Z,15.93
2022-10-14T10:43:19.983Z,14.98
2022-10-14T10:46:01.248Z,9.77
2022-10-14T10:48:48.015Z,12.18
2022-10-14T10:51:34.467Z,5.90
2022-10-14T10:54:39.883Z,4.53
2022-10-14T10:57:18.182Z,4.68
2022-10-14T10:59:56.334Z,3.92
2022-10-14T11:02:58.242Z,5.82
2022-10-14T11:05:47.443Z,5.93
2022-10-14T11:08:45.704Z,4.93
2022-10-14T11:12:04.758Z,5.63
2022-10-14T11:14:47.410Z,8.85
2022-10-14T11:17:14.623Z,15.75
2022-10-14T11:20:01.083Z,5.65
2022-10-14T11:22:48.015Z,3.78
2022-10-14T11:25:40.872Z,3.63
2022-10-14T11:28:12.662Z,2.97
2022-10-14T11:30:39.842Z,1.90
2022-10-14T11:33:45.574Z,2.00
2022-10-14T11:36:25.294Z,2.13
2022-10-14T11:39:16.464Z,1.70
2022-10-14T11:41:55.968Z,1.70
2022-10-14T11:44:32.393Z,1.50
2022-10-14T11:47:04.507Z,1.52
2022-10-14T11:49:36.675Z,1.80
2022-10-14T11:52:07.749Z,1.90
2022-10-14T11:54:43.662Z,1.60
2022-10-14T11:57:20.347Z,1.70
2022-10-14T12:00:01.173Z,1.90
2022-10-14T12:02:41.067Z,2.00
2022-10-14T12:05:44.514Z,1.67
2022-10-14T12:08:22.229Z,2.10
2022-10-14T12:10:58.297Z,2.15
2022-10-14T12:13:32.563Z,2.05
2022-10-14T12:16:05.456Z,3.25
2022-10-14T12:18:33.085Z,4.85
2022-10-14T12:21:08.649Z,3.42
2022-10-14T12:23:47.294Z,3.45
2022-10-14T12:26:20.495Z,5.03
2022-10-14T12:28:47.931Z,2.80
2022-10-14T12:31:38.298Z,2.40
2022-10-14T12:34:11.613Z,2.50
2022-10-14T12:36:39.817Z,2.78
2022-10-14T12:39:19.030Z,2.65
2022-10-14T12:42:10.473Z,2.90
2022-10-14T12:44:51.860Z,7.20
2022-10-14T12:47:21.258Z,7.85
2022-10-14T12:49:56.470Z,7.15
2022-10-14T12:52:27.225Z,4.65
2022-10-14T12:54:55.209Z,4.68
2022-10-14T12:57:28.685Z,3.28
2022-10-14T12:59:59.352Z,2.50
2022-10-14T13:02:33.088Z,2.50
2022-10-14T13:05:06.820Z,2.53
2022-10-14T13:07:42.896Z,2.80
2022-10-14T13:10:50.414Z,2.47
2022-10-14T13:13:44.837Z,2.53
2022-10-14T13:16:21.154Z,3.00
2022-10-14T13:18:53.222Z,2.10
2022-10-14T13:21:34.815Z,2.75
2022-10-14T13:24:06.037Z,2.55
2022-10-14T13:26:54.639Z,2.55
2022-10-14T13:29:40.637Z,2.50
2022-10-14T13:32:25.858Z,14.90
2022-10-14T13:35:01.244Z,4.07
2022-10-14T13:38:05.474Z,2.90
2022-10-14T13:40:43.751Z,2.35
2022-10-14T13:43:20.036Z,2.95
2022-10-14T13:45:53.381Z,3.58
2022-10-14T13:48:30.968Z,8.38
2022-10-14T13:51:24.687Z,3.03
2022-10-14T13:54:17.188Z,2.72
2022-10-14T13:56:44.939Z,3.10
2022-10-14T13:59:43.130Z,3.13
2022-10-14T14:02:16.150Z,3.55
2022-10-14T14:04:51.557Z,3.47
2022-10-14T14:07:59.230Z,3.25
2022-10-14T14:10:18.857Z,2.97
2022-10-14T14:12:46.718Z,2.55
2022-10-14T14:15:21.631Z,2.95
2022-10-14T14:17:48.967Z,2.30
2022-10-14T14:20:24.441Z,2.38
2022-10-14T14:22:54.097Z,2.80
2022-10-14T14:25:35.716Z,2.85
2022-10-14T14:28:15.409Z,2.10
2022-10-14T14:30:54.293Z,3.13
2022-10-14T14:33:33.964Z,2.45
2022-10-14T14:36:03.912Z,2.85
2022-10-14T14:38:33.420Z,9.82
2022-10-14T14:41:06.057Z,2.38
2022-10-14T14:43:37.406Z,2.03
2022-10-14T14:46:07.178Z,1.98
2022-10-14T14:48:34.497Z,2.30
2022-10-14T14:51:01.855Z,2.30
2022-10-14T14:53:32.189Z,2.30
2022-10-14T14:56:10.423Z,2.03
2022-10-14T14:58:49.234Z,1.90
2022-10-14T15:01:28.978Z,2.13
2022-10-14T15:04:12.652Z,2.10
2022-10-14T15:07:04.097Z,2.03
2022-10-14T15:10:00.856Z,2.38
2022-10-14T15:12:30.991Z,2.50
2022-10-14T15:14:59.823Z,2.03
2022-10-14T15:17:30.130Z,1.85
2022-10-14T15:20:01.291Z,1.90
2022-10-14T15:22:36.568Z,2.10
2022-10-14T15:25:10.365Z,1.98
2022-10-14T15:27:37.533Z,2.08
2022-10-14T15:30:31.781Z,5.88
2022-10-14T15:33:06.118Z,4.00
2022-10-14T15:35:34.197Z,3.28
2022-10-14T15:38:01.498Z,2.80
2022-10-14T15:40:32.364Z,2.58
2022-10-14T15:42:59.708Z,2.60
2022-10-14T15:45:27.110Z,2.75
2022-10-14T15:48:00.707Z,2.50
2022-10-14T15:50:28.170Z,2.65
2022-10-14T15:52:56.884Z,2.60
2022-10-14T15:55:27.138Z,2.63
2022-10-14T15:57:54.512Z,3.38
2022-10-14T16:00:23.636Z,2.90
2022-10-14T16:02:54.529Z,3.63
2022-10-14T16:05:21.903Z,2.22
2022-10-14T16:07:49.491Z,2.72
2022-10-14T16:10:21.563Z,2.50
2022-10-14T16:12:49.584Z,2.85
2022-10-14T16:15:22.599Z,3.10
2022-10-14T16:17:52.814Z,2.30
2022-10-14T16:20:21.478Z,2.53
2022-10-14T16:22:48.965Z,2.45
2022-10-14T16:25:23.971Z,2.00
2022-10-14T16:27:51.319Z,2.38
2022-10-14T16:30:18.793Z,2.40
2022-10-14T16:32:45.980Z,3.08
2022-10-14T16:35:13.239Z,2.47
2022-10-14T16:37:41.092Z,2.75
2022-10-14T16:40:10.919Z,2.70
2022-10-14T16:42:38.373Z,2.50
2022-10-14T16:45:06.278Z,2.58
2022-10-14T16:47:33.689Z,2.33
2022-10-14T16:50:00.981Z,2.58
2022-10-14T16:52:28.213Z,2.67
2022-10-14T16:54:55.505Z,2.92
2022-10-14T16:57:22.790Z,2.90
2022-10-14T16:59:50.059Z,3.03
2022-10-14T17:02:18.036Z,2.90
2022-10-14T17:04:46.541Z,2.92
2022-10-14T17:07:16.592Z,2.80
2022-10-14T17:09:43.857Z,3.35
2022-10-14T17:12:13.779Z,2.90
2022-10-14T17:14:41.655Z,2.15
2022-10-14T17:17:10.373Z,2.33
2022-10-14T17:19:38.429Z,2.43
2022-10-14T17:22:05.859Z,5.85
2022-10-14T17:24:33.084Z,3.10
2022-10-14T17:27:04.567Z,3.00
2022-10-14T17:29:32.107Z,3.22
2022-10-14T17:31:59.299Z,3.60
2022-10-14T17:34:26.540Z,6.20
2022-10-14T17:36:54.307Z,2.90
2022-10-14T17:39:27.587Z,3.42
2022-10-14T17:41:56.714Z,2.92
2022-10-14T17:44:24.565Z,3.28
2022-10-14T17:46:52.030Z,2.80
2022-10-14T17:49:19.890Z,3.30
2022-10-14T17:51:47.377Z,5.13
2022-10-14T17:54:14.684Z,5.80
2022-10-14T17:56:43.091Z,4.57
2022-10-14T17:59:11.957Z,4.82
2022-10-14T18:04:26.494Z,3.90
2022-10-14T18:06:54.230Z,6.70
2022-10-14T18:09:21.725Z,3.83
2022-10-14T18:14:39.039Z,2.90
2022-10-14T18:17:06.469Z,2.83
2022-10-14T18:19:36.360Z,2.50
2022-10-14T18:22:04.132Z,3.42
2022-10-14T18:24:32.336Z,3.20
2022-10-14T18:26:59.529Z,3.05
2022-10-14T18:29:26.822Z,3.10
2022-10-14T18:31:54.016Z,2.83
2022-10-14T18:34:22.454Z,9.65
2022-10-14T18:36:49.874Z,4.68
2022-10-14T18:39:17.065Z,3.50
2022-10-14T18:41:44.398Z,7.85
2022-10-14T18:44:12.083Z,12.75
2022-10-14T18:46:40.418Z,10.00
2022-10-14T18:49:10.278Z,8.93
2022-10-14T18:51:38.831Z,5.82
2022-10-14T18:54:20.550Z,5.35
2022-10-14T18:56:48.023Z,5.30
2022-10-14T18:59:23.368Z,4.82
2022-10-14T19:01:55.221Z,4.32
2022-10-14T19:04:26.678Z,3.47
2022-10-14T19:06:54.016Z,3.20
2022-10-14T19:09:24.493Z,2.58
2022-10-14T19:11:52.707Z,2.90
2022-10-14T19:14:22.337Z,5.15
2022-10-14T19:16:49.854Z,3.75
2022-10-14T19:19:19.550Z,2.25
2022-10-14T19:21:51.034Z,2.13
2022-10-14T19:24:18.435Z,2.33
2022-10-14T19:26:46.875Z,2.60
2022-10-14T19:29:15.716Z,2.00
2022-10-14T19:31:43.898Z,3.03
2022-10-14T19:34:14.520Z,2.42
2022-10-14T19:36:43.507Z,2.35
2022-10-14T19:39:13.418Z,2.35
2022-10-14T19:41:46.254Z,2.55
2022-10-14T19:44:15.484Z,2.15
2022-10-14T19:46:44.302Z,1.73
2022-10-14T19:49:13.410Z,1.30
2022-10-14T19:51:40.867Z,1.70
2022-10-14T19:54:09.942Z,2.05
2022-10-14T19:56:37.197Z,1.52
2022-10-14T19:59:04.431Z,1.80
2022-10-14T20:01:32.343Z,1.60
2022-10-14T20:04:00.803Z,1.75
2022-10-14T20:06:31.709Z,1.60
2022-10-14T20:08:58.999Z,1.65
2022-10-14T20:11:26.448Z,2.05
2022-10-14T20:13:53.898Z,2.08
2022-10-14T20:16:21.072Z,2.67
2022-10-14T20:18:48.335Z,2.95
2022-10-14T20:21:16.184Z,2.90
2022-10-14T20:23:43.682Z,2.75
2022-10-14T20:26:18.042Z,3.08
2022-10-14T20:28:46.108Z,2.67
2022-10-14T20:31:16.168Z,3.30
2022-10-14T20:33:43.665Z,3.40
2022-10-14T20:36:18.246Z,3.40
2022-10-14T20:38:49.499Z,3.55
2022-10-14T20:41:24.314Z,3.30
2022-10-14T20:43:52.886Z,3.55
2022-10-14T20:46:21.770Z,3.75
2022-10-14T20:48:53.460Z,4.60
2022-10-14T20:51:22.598Z,6.20
2022-10-14T20:53:50.148Z,4.72
2022-10-14T20:56:17.461Z,3.60
2022-10-14T20:58:44.974Z,3.40
2022-10-14T21:01:17.109Z,3.10
2022-10-14T21:03:46.232Z,3.38
2022-10-14T21:06:26.903Z,2.53
2022-10-14T21:08:54.669Z,3.53
2022-10-14T21:11:23.425Z,2.50
2022-10-14T21:13:52.903Z,2.90
2022-10-14T21:16:25.793Z,2.97
2022-10-14T21:18:58.053Z,3.15
2022-10-14T21:21:27.241Z,3.30
2022-10-14T21:23:55.555Z,3.05
2022-10-14T21:26:23.096Z,3.55
2022-10-14T21:28:50.451Z,2.90
2022-10-14T21:31:19.312Z,3.75
2022-10-14T21:33:47.770Z,2.95
2022-10-14T21:36:16.700Z,3.50
2022-10-14T21:38:44.393Z,2.90
2022-10-14T21:41:12.107Z,3.42
2022-10-14T21:43:39.696Z,3.17
2022-10-14T21:46:14.322Z,2.65
2022-10-14T21:48:42.488Z,2.53
2022-10-14T21:51:12.089Z,3.25
2022-10-14T21:53:40.479Z,2.70
2022-10-14T21:56:08.300Z,3.10
2022-10-14T21:58:36.129Z,5.68
2022-10-14T22:01:24.340Z,3.25
2022-10-14T22:03:59.539Z,3.70
2022-10-14T22:06:27.237Z,2.92
2022-10-14T22:08:56.364Z,2.85
2022-10-14T22:11:29.152Z,2.65
2022-10-14T22:13:58.275Z,2.90
2022-10-14T22:16:28.907Z,3.33
2022-10-14T22:18:58.396Z,3.30
2022-10-14T22:21:27.336Z,2.75
2022-10-14T22:23:54.621Z,3.35
2022-10-14T22:26:23.853Z,3.20
2022-10-14T22:28:58.957Z,3.50
2022-10-14T22:31:27.340Z,3.65
2022-10-14T22:33:54.580Z,3.42
2022-10-14T22:36:24.353Z,2.67
2022-10-14T22:38:53.120Z,3.40
2022-10-14T22:41:21.156Z,3.03
2022-10-14T22:43:50.415Z,4.47
2022-10-14T22:46:22.291Z,3.72
2022-10-14T22:48:50.302Z,3.58
2022-10-14T22:51:20.074Z,3.67
2022-10-14T22:53:47.412Z,4.28
2022-10-14T22:56:22.467Z,3.67
2022-10-14T22:58:54.071Z,3.30
2022-10-14T23:01:22.247Z,4.03
2022-10-14T23:03:50.533Z,4.00
2022-10-14T23:06:17.774Z,3.65
2022-10-14T23:08:45.061Z,3.95
2022-10-14T23:11:18.459Z,4.00
2022-10-14T23:13:46.110Z,4.28
2022-10-14T23:16:31.653Z,4.05
2022-10-14T23:18:59.375Z,4.07
2022-10-14T23:21:29.198Z,4.80
2022-10-14T23:23:58.072Z,4.82
2022-10-14T23:26:27.141Z,4.57
2022-10-14T23:28:57.388Z,5.13
2022-10-14T23:33:53.177Z,4.50
2022-10-14T23:36:21.968Z,5.20
2022-10-14T23:38:49.898Z,4.28
2022-10-14T23:41:17.155Z,3.97
2022-10-14T23:43:45.481Z,5.05
2022-10-14T23:46:12.960Z,5.03
2022-10-14T23:48:40.670Z,4.65
2022-10-14T23:51:08.634Z,5.35
2022-10-14T23:53:35.926Z,5.13
2022-10-14T23:56:04.367Z,5.80
2022-10-14T23:58:32.381Z,5.18
